sensor_id;sensor_type;location;lat;lon;timestamp;P1;durP1;ratioP1;P2;durP2;ratioP2
11488;SDS011;5801;50.804;12.638;2023-08-12T00:02:13;5.25;;;2.67;;
11488;SDS011;5801;50.804;12.638;2023-08-12T00:04:39;3.13;;;2.75;;
11488;SDS011;5801;50.804;12.638;2023-08-12T00:07:05;5.40;;;2.67;;
11488;SDS011;5801;50.804;12.638;2023-08-12T00:09:32;3.47;;;2.75;;
11488;SDS011;5801;50.804;12.638;2023-08-12T00:11:58;5.30;;;2.88;;
11488;SDS011;5801;50.804;12.638;2023-08-12T00:14:24;11.82;;;3.88;;
11488;SDS011;5801;50.804;12.638;2023-08-12T00:16:50;5.68;;;3.17;;
11488;SDS011;5801;50.804;12.638;2023-08-12T00:19:16;5.40;;;2.38;;
11488;SDS011;5801;50.804;12.638;2023-08-12T00:21:42;2.60;;;2.40;;
11488;SDS011;5801;50.804;12.638;2023-08-12T00:24:08;2.97;;;2.70;;
11488;SDS011;5801;50.804;12.638;2023-08-12T00:26:34;3.30;;;2.60;;
11488;SDS011;5801;50.804;12.638;2023-08-12T00:29:00;2.90;;;2.60;;
11488;SDS011;5801;50.804;12.638;2023-08-12T00:31:27;5.63;;;2.58;;
11488;SDS011;5801;50.804;12.638;2023-08-12T00:33:53;3.72;;;2.90;;
11488;SDS011;5801;50.804;12.638;2023-08-12T00:36:19;3.00;;;2.60;;
11488;SDS011;5801;50.804;12.638;2023-08-12T00:38:45;3.20;;;2.83;;
11488;SDS011;5801;50.804;12.638;2023-08-12T00:41:11;4.57;;;2.53;;
11488;SDS011;5801;50.804;12.638;2023-08-12T00:43:38;3.63;;;2.60;;
11488;SDS011;5801;50.804;12.638;2023-08-12T00:46:04;3.20;;;2.85;;
11488;SDS011;5801;50.804;12.638;2023-08-12T00:48:31;5.63;;;2.80;;
11488;SDS011;5801;50.804;12.638;2023-08-12T00:50:57;3.58;;;2.70;;
11488;SDS011;5801;50.804;12.638;2023-08-12T00:53:23;5.55;;;2.70;;
11488;SDS011;5801;50.804;12.638;2023-08-12T00:55:49;2.53;;;2.33;;
11488;SDS011;5801;50.804;12.638;2023-08-12T00:58:15;5.80;;;2.47;;
11488;SDS011;5801;50.804;12.638;2023-08-12T01:00:42;3.15;;;2.78;;
11488;SDS011;5801;50.804;12.638;2023-08-12T01:03:08;3.90;;;2.85;;
11488;SDS011;5801;50.804;12.638;2023-08-12T01:05:34;5.65;;;2.65;;
11488;SDS011;5801;50.804;12.638;2023-08-12T01:08:00;2.80;;;2.47;;
11488;SDS011;5801;50.804;12.638;2023-08-12T01:10:29;4.75;;;2.25;;
11488;SDS011;5801;50.804;12.638;2023-08-12T01:16:00;4.30;;;2.75;;
11488;SDS011;5801;50.804;12.638;2023-08-12T01:18:29;3.83;;;2.35;;
11488;SDS011;5801;50.804;12.638;2023-08-12T01:20:55;2.50;;;2.30;;
11488;SDS011;5801;50.804;12.638;2023-08-12T01:23:22;4.88;;;2.65;;
11488;SDS011;5801;50.804;12.638;2023-08-12T01:25:48;3.47;;;2.28;;
11488;SDS011;5801;50.804;12.638;2023-08-12T01:28:14;3.75;;;2.42;;
11488;SDS011;5801;50.804;12.638;2023-08-12T01:30:56;3.60;;;2.63;;
11488;SDS011;5801;50.804;12.638;2023-08-12T01:33:34;2.60;;;2.25;;
11488;SDS011;5801;50.804;12.638;2023-08-12T01:36:18;2.53;;;2.33;;
11488;SDS011;5801;50.804;12.638;2023-08-12T01:38:45;2.40;;;2.20;;
11488;SDS011;5801;50.804;12.638;2023-08-12T01:41:12;4.10;;;2.70;;
11488;SDS011;5801;50.804;12.638;2023-08-12T01:43:39;7.35;;;2.72;;
11488;SDS011;5801;50.804;12.638;2023-08-12T01:46:05;3.67;;;2.78;;
11488;SDS011;5801;50.804;12.638;2023-08-12T01:48:32;5.18;;;2.50;;
11488;SDS011;5801;50.804;12.638;2023-08-12T01:50:58;3.25;;;2.40;;
11488;SDS011;5801;50.804;12.638;2023-08-12T01:53:24;2.92;;;2.58;;
11488;SDS011;5801;50.804;12.638;2023-08-12T01:55:51;3.40;;;2.75;;
11488;SDS011;5801;50.804;12.638;2023-08-12T01:58:17;3.78;;;2.50;;
11488;SDS011;5801;50.804;12.638;2023-08-12T02:00:43;3.88;;;2.60;;
11488;SDS011;5801;50.804;12.638;2023-08-12T02:03:10;2.80;;;2.45;;
11488;SDS011;5801;50.804;12.638;2023-08-12T02:05:36;3.28;;;2.65;;
11488;SDS011;5801;50.804;12.638;2023-08-12T02:08:03;3.75;;;2.30;;
11488;SDS011;5801;50.804;12.638;2023-08-12T02:10:29;3.15;;;2.35;;
11488;SDS011;5801;50.804;12.638;2023-08-12T02:12:55;3.15;;;2.38;;
11488;SDS011;5801;50.804;12.638;2023-08-12T02:15:21;2.53;;;2.20;;
11488;SDS011;5801;50.804;12.638;2023-08-12T02:17:47;3.13;;;2.35;;
11488;SDS011;5801;50.804;12.638;2023-08-12T02:20:14;2.83;;;2.28;;
11488;SDS011;5801;50.804;12.638;2023-08-12T02:22:40;2.78;;;2.33;;
11488;SDS011;5801;50.804;12.638;2023-08-12T02:25:06;5.60;;;2.67;;
11488;SDS011;5801;50.804;12.638;2023-08-12T02:27:33;3.33;;;2.60;;
11488;SDS011;5801;50.804;12.638;2023-08-12T02:29:59;3.30;;;2.90;;
11488;SDS011;5801;50.804;12.638;2023-08-12T02:32:25;6.18;;;2.47;;
11488;SDS011;5801;50.804;12.638;2023-08-12T02:34:51;3.25;;;2.47;;
11488;SDS011;5801;50.804;12.638;2023-08-12T02:37:17;4.80;;;2.55;;
11488;SDS011;5801;50.804;12.638;2023-08-12T02:39:43;3.20;;;2.38;;
11488;SDS011;5801;50.804;12.638;2023-08-12T02:42:09;3.55;;;2.60;;
11488;SDS011;5801;50.804;12.638;2023-08-12T02:44:35;6.30;;;3.17;;
11488;SDS011;5801;50.804;12.638;2023-08-12T02:47:01;3.45;;;3.03;;
11488;SDS011;5801;50.804;12.638;2023-08-12T02:49:27;4.93;;;2.72;;
11488;SDS011;5801;50.804;12.638;2023-08-12T02:51:53;3.15;;;2.40;;
11488;SDS011;5801;50.804;12.638;2023-08-12T02:54:19;3.35;;;2.83;;
11488;SDS011;5801;50.804;12.638;2023-08-12T02:56:46;3.58;;;2.25;;
11488;SDS011;5801;50.804;12.638;2023-08-12T02:59:12;2.83;;;2.50;;
11488;SDS011;5801;50.804;12.638;2023-08-12T03:01:40;3.80;;;2.50;;
11488;SDS011;5801;50.804;12.638;2023-08-12T03:04:07;4.80;;;2.90;;
11488;SDS011;5801;50.804;12.638;2023-08-12T03:06:33;4.97;;;3.00;;
11488;SDS011;5801;50.804;12.638;2023-08-12T03:08:59;3.83;;;2.53;;
11488;SDS011;5801;50.804;12.638;2023-08-12T03:11:25;3.42;;;2.65;;
11488;SDS011;5801;50.804;12.638;2023-08-12T03:13:51;3.78;;;2.63;;
11488;SDS011;5801;50.804;12.638;2023-08-12T03:16:17;5.22;;;3.10;;
11488;SDS011;5801;50.804;12.638;2023-08-12T03:18:43;3.25;;;2.70;;
11488;SDS011;5801;50.804;12.638;2023-08-12T03:21:09;4.28;;;2.65;;
11488;SDS011;5801;50.804;12.638;2023-08-12T03:23:36;3.10;;;2.80;;
11488;SDS011;5801;50.804;12.638;2023-08-12T03:26:02;5.55;;;3.05;;
11488;SDS011;5801;50.804;12.638;2023-08-12T03:28:29;3.42;;;3.10;;
11488;SDS011;5801;50.804;12.638;2023-08-12T03:30:55;4.15;;;2.80;;
11488;SDS011;5801;50.804;12.638;2023-08-12T03:33:22;3.60;;;2.72;;
11488;SDS011;5801;50.804;12.638;2023-08-12T03:35:48;3.55;;;2.60;;
11488;SDS011;5801;50.804;12.638;2023-08-12T03:38:14;3.45;;;2.88;;
11488;SDS011;5801;50.804;12.638;2023-08-12T03:40:41;3.47;;;2.80;;
11488;SDS011;5801;50.804;12.638;2023-08-12T03:43:07;3.15;;;2.63;;
11488;SDS011;5801;50.804;12.638;2023-08-12T03:45:39;2.95;;;2.45;;
11488;SDS011;5801;50.804;12.638;2023-08-12T03:48:06;4.50;;;2.67;;
11488;SDS011;5801;50.804;12.638;2023-08-12T03:50:33;5.10;;;3.10;;
11488;SDS011;5801;50.804;12.638;2023-08-12T03:53:00;5.57;;;3.47;;
11488;SDS011;5801;50.804;12.638;2023-08-12T03:55:26;3.60;;;2.88;;
11488;SDS011;5801;50.804;12.638;2023-08-12T03:57:52;3.33;;;2.78;;
11488;SDS011;5801;50.804;12.638;2023-08-12T04:00:18;3.53;;;2.30;;
11488;SDS011;5801;50.804;12.638;2023-08-12T04:02:44;3.50;;;2.88;;
11488;SDS011;5801;50.804;12.638;2023-08-12T04:05:11;3.80;;;3.00;;
11488;SDS011;5801;50.804;12.638;2023-08-12T04:07:37;3.83;;;2.55;;
11488;SDS011;5801;50.804;12.638;2023-08-12T04:10:03;2.85;;;2.60;;
11488;SDS011;5801;50.804;12.638;2023-08-12T04:12:30;3.22;;;2.85;;
11488;SDS011;5801;50.804;12.638;2023-08-12T04:14:56;6.05;;;2.90;;
11488;SDS011;5801;50.804;12.638;2023-08-12T04:17:22;2.40;;;2.15;;
11488;SDS011;5801;50.804;12.638;2023-08-12T04:19:48;3.92;;;2.35;;
11488;SDS011;5801;50.804;12.638;2023-08-12T04:22:14;2.50;;;2.30;;
11488;SDS011;5801;50.804;12.638;2023-08-12T04:24:41;2.67;;;2.47;;
11488;SDS011;5801;50.804;12.638;2023-08-12T04:27:07;6.13;;;2.80;;
11488;SDS011;5801;50.804;12.638;2023-08-12T04:29:34;2.60;;;2.40;;
11488;SDS011;5801;50.804;12.638;2023-08-12T04:32:01;2.17;;;1.90;;
11488;SDS011;5801;50.804;12.638;2023-08-12T04:34:27;2.47;;;2.28;;
11488;SDS011;5801;50.804;12.638;2023-08-12T04:36:53;3.22;;;2.53;;
11488;SDS011;5801;50.804;12.638;2023-08-12T04:39:19;2.60;;;2.10;;
11488;SDS011;5801;50.804;12.638;2023-08-12T04:41:46;3.85;;;2.47;;
11488;SDS011;5801;50.804;12.638;2023-08-12T04:44:13;2.92;;;2.15;;
11488;SDS011;5801;50.804;12.638;2023-08-12T04:46:39;2.83;;;2.45;;
11488;SDS011;5801;50.804;12.638;2023-08-12T04:49:05;2.92;;;2.63;;
11488;SDS011;5801;50.804;12.638;2023-08-12T04:51:32;3.08;;;2.60;;
11488;SDS011;5801;50.804;12.638;2023-08-12T04:53:58;4.32;;;2.55;;
11488;SDS011;5801;50.804;12.638;2023-08-12T04:56:26;2.53;;;2.33;;
11488;SDS011;5801;50.804;12.638;2023-08-12T04:58:54;2.42;;;2.20;;
11488;SDS011;5801;50.804;12.638;2023-08-12T05:01:20;2.45;;;2.25;;
11488;SDS011;5801;50.804;12.638;2023-08-12T05:03:46;2.78;;;2.33;;
11488;SDS011;5801;50.804;12.638;2023-08-12T05:06:12;2.83;;;2.45;;
11488;SDS011;5801;50.804;12.638;2023-08-12T05:08:39;3.28;;;2.75;;
11488;SDS011;5801;50.804;12.638;2023-08-12T05:11:05;3.17;;;2.88;;
11488;SDS011;5801;50.804;12.638;2023-08-12T05:13:31;7.35;;;2.80;;
11488;SDS011;5801;50.804;12.638;2023-08-12T05:15:57;2.67;;;2.47;;
11488;SDS011;5801;50.804;12.638;2023-08-12T05:18:23;3.47;;;2.22;;
11488;SDS011;5801;50.804;12.638;2023-08-12T05:20:50;2.55;;;2.35;;
11488;SDS011;5801;50.804;12.638;2023-08-12T05:23:17;2.47;;;2.15;;
11488;SDS011;5801;50.804;12.638;2023-08-12T05:25:45;2.95;;;2.65;;
11488;SDS011;5801;50.804;12.638;2023-08-12T05:28:11;6.90;;;2.55;;
11488;SDS011;5801;50.804;12.638;2023-08-12T05:30:37;2.40;;;2.20;;
11488;SDS011;5801;50.804;12.638;2023-08-12T05:33:03;5.57;;;3.22;;
11488;SDS011;5801;50.804;12.638;2023-08-12T05:35:33;2.55;;;2.28;;
11488;SDS011;5801;50.804;12.638;2023-08-12T05:38:00;7.47;;;2.47;;
11488;SDS011;5801;50.804;12.638;2023-08-12T05:40:26;3.78;;;2.40;;
11488;SDS011;5801;50.804;12.638;2023-08-12T05:42:52;3.92;;;2.08;;
11488;SDS011;5801;50.804;12.638;2023-08-12T05:45:18;2.42;;;2.00;;
11488;SDS011;5801;50.804;12.638;2023-08-12T05:47:44;2.15;;;2.05;;
11488;SDS011;5801;50.804;12.638;2023-08-12T05:50:10;3.25;;;2.17;;
11488;SDS011;5801;50.804;12.638;2023-08-12T05:52:36;2.92;;;1.92;;
11488;SDS011;5801;50.804;12.638;2023-08-12T05:55:02;2.33;;;2.00;;
11488;SDS011;5801;50.804;12.638;2023-08-12T05:57:28;2.28;;;2.08;;
11488;SDS011;5801;50.804;12.638;2023-08-12T05:59:54;2.05;;;1.80;;
11488;SDS011;5801;50.804;12.638;2023-08-12T06:02:20;2.47;;;1.90;;
11488;SDS011;5801;50.804;12.638;2023-08-12T06:04:46;3.25;;;2.35;;
11488;SDS011;5801;50.804;12.638;2023-08-12T06:07:12;8.80;;;2.10;;
11488;SDS011;5801;50.804;12.638;2023-08-12T06:09:38;2.95;;;2.33;;
11488;SDS011;5801;50.804;12.638;2023-08-12T06:12:04;3.17;;;2.13;;
11488;SDS011;5801;50.804;12.638;2023-08-12T06:14:31;3.85;;;1.90;;
11488;SDS011;5801;50.804;12.638;2023-08-12T06:16:57;4.47;;;2.15;;
11488;SDS011;5801;50.804;12.638;2023-08-12T06:19:23;2.30;;;2.10;;
11488;SDS011;5801;50.804;12.638;2023-08-12T06:21:49;2.30;;;1.90;;
11488;SDS011;5801;50.804;12.638;2023-08-12T06:24:15;3.10;;;2.30;;
11488;SDS011;5801;50.804;12.638;2023-08-12T06:26:41;1.95;;;1.75;;
11488;SDS011;5801;50.804;12.638;2023-08-12T06:29:07;2.30;;;1.95;;
11488;SDS011;5801;50.804;12.638;2023-08-12T06:31:33;4.30;;;2.50;;
11488;SDS011;5801;50.804;12.638;2023-08-12T06:33:59;2.67;;;2.38;;
11488;SDS011;5801;50.804;12.638;2023-08-12T06:36:26;2.40;;;2.17;;
11488;SDS011;5801;50.804;12.638;2023-08-12T06:38:52;2.28;;;2.08;;
11488;SDS011;5801;50.804;12.638;2023-08-12T06:41:18;4.47;;;2.30;;
11488;SDS011;5801;50.804;12.638;2023-08-12T06:43:44;2.25;;;2.05;;
11488;SDS011;5801;50.804;12.638;2023-08-12T06:46:10;2.45;;;2.08;;
11488;SDS011;5801;50.804;12.638;2023-08-12T06:48:36;2.30;;;2.10;;
11488;SDS011;5801;50.804;12.638;2023-08-12T06:51:02;2.45;;;1.83;;
11488;SDS011;5801;50.804;12.638;2023-08-12T06:53:35;2.95;;;2.30;;
11488;SDS011;5801;50.804;12.638;2023-08-12T06:56:02;2.28;;;2.08;;
11488;SDS011;5801;50.804;12.638;2023-08-12T06:58:28;2.35;;;2.15;;
11488;SDS011;5801;50.804;12.638;2023-08-12T07:00:54;2.38;;;1.80;;
11488;SDS011;5801;50.804;12.638;2023-08-12T07:03:21;2.45;;;1.98;;
11488;SDS011;5801;50.804;12.638;2023-08-12T07:05:47;2.08;;;1.95;;
11488;SDS011;5801;50.804;12.638;2023-08-12T07:08:13;2.20;;;1.90;;
11488;SDS011;5801;50.804;12.638;2023-08-12T07:10:40;2.33;;;2.00;;
11488;SDS011;5801;50.804;12.638;2023-08-12T07:13:06;4.97;;;2.25;;
11488;SDS011;5801;50.804;12.638;2023-08-12T07:15:32;2.47;;;2.10;;
11488;SDS011;5801;50.804;12.638;2023-08-12T07:17:58;2.10;;;1.90;;
11488;SDS011;5801;50.804;12.638;2023-08-12T07:20:24;2.05;;;1.85;;
11488;SDS011;5801;50.804;12.638;2023-08-12T07:22:51;2.47;;;2.03;;
11488;SDS011;5801;50.804;12.638;2023-08-12T07:25:17;2.45;;;2.15;;
11488;SDS011;5801;50.804;12.638;2023-08-12T07:27:43;5.20;;;2.42;;
11488;SDS011;5801;50.804;12.638;2023-08-12T07:30:09;2.20;;;2.00;;
11488;SDS011;5801;50.804;12.638;2023-08-12T07:32:36;2.92;;;1.70;;
11488;SDS011;5801;50.804;12.638;2023-08-12T07:35:03;3.83;;;2.00;;
11488;SDS011;5801;50.804;12.638;2023-08-12T07:37:31;2.40;;;2.20;;
11488;SDS011;5801;50.804;12.638;2023-08-12T07:39:57;2.60;;;2.22;;
11488;SDS011;5801;50.804;12.638;2023-08-12T07:42:23;2.10;;;1.90;;
11488;SDS011;5801;50.804;12.638;2023-08-12T07:44:49;5.22;;;2.05;;
11488;SDS011;5801;50.804;12.638;2023-08-12T07:47:15;2.00;;;1.83;;
11488;SDS011;5801;50.804;12.638;2023-08-12T07:49:42;4.63;;;1.83;;
11488;SDS011;5801;50.804;12.638;2023-08-12T07:52:08;2.47;;;2.28;;
11488;SDS011;5801;50.804;12.638;2023-08-12T07:54:35;3.90;;;2.25;;
11488;SDS011;5801;50.804;12.638;2023-08-12T07:57:01;2.00;;;1.70;;
11488;SDS011;5801;50.804;12.638;2023-08-12T07:59:26;2.50;;;1.98;;
11488;SDS011;5801;50.804;12.638;2023-08-12T08:01:53;2.45;;;2.00;;
11488;SDS011;5801;50.804;12.638;2023-08-12T08:04:19;2.97;;;2.03;;
11488;SDS011;5801;50.804;12.638;2023-08-12T08:06:45;2.40;;;2.20;;
11488;SDS011;5801;50.804;12.638;2023-08-12T08:09:11;2.53;;;1.98;;
11488;SDS011;5801;50.804;12.638;2023-08-12T08:11:37;2.50;;;1.80;;
11488;SDS011;5801;50.804;12.638;2023-08-12T08:14:03;3.20;;;2.10;;
11488;SDS011;5801;50.804;12.638;2023-08-12T08:16:29;4.20;;;2.30;;
11488;SDS011;5801;50.804;12.638;2023-08-12T08:18:55;2.45;;;2.25;;
11488;SDS011;5801;50.804;12.638;2023-08-12T08:21:21;2.10;;;1.90;;
11488;SDS011;5801;50.804;12.638;2023-08-12T08:23:47;2.22;;;2.03;;
11488;SDS011;5801;50.804;12.638;2023-08-12T08:26:13;2.97;;;2.15;;
11488;SDS011;5801;50.804;12.638;2023-08-12T08:28:40;2.63;;;2.10;;
11488;SDS011;5801;50.804;12.638;2023-08-12T08:31:06;2.83;;;2.15;;
11488;SDS011;5801;50.804;12.638;2023-08-12T08:33:33;3.58;;;2.08;;
11488;SDS011;5801;50.804;12.638;2023-08-12T08:35:58;2.08;;;1.90;;
11488;SDS011;5801;50.804;12.638;2023-08-12T08:38:24;7.35;;;2.40;;
11488;SDS011;5801;50.804;12.638;2023-08-12T08:40:50;2.10;;;1.90;;
11488;SDS011;5801;50.804;12.638;2023-08-12T08:43:19;2.80;;;2.10;;
11488;SDS011;5801;50.804;12.638;2023-08-12T08:45:50;1.98;;;1.83;;
11488;SDS011;5801;50.804;12.638;2023-08-12T08:48:19;3.28;;;2.50;;
11488;SDS011;5801;50.804;12.638;2023-08-12T08:50:45;2.28;;;2.08;;
11488;SDS011;5801;50.804;12.638;2023-08-12T08:53:13;2.78;;;2.05;;
11488;SDS011;5801;50.804;12.638;2023-08-12T08:55:41;1.80;;;1.70;;
11488;SDS011;5801;50.804;12.638;2023-08-12T08:58:07;2.38;;;2.00;;
11488;SDS011;5801;50.804;12.638;2023-08-12T09:00:33;2.35;;;1.80;;
11488;SDS011;5801;50.804;12.638;2023-08-12T09:03:00;3.90;;;1.80;;
11488;SDS011;5801;50.804;12.638;2023-08-12T09:05:27;3.58;;;2.13;;
11488;SDS011;5801;50.804;12.638;2023-08-12T09:07:54;2.63;;;2.10;;
11488;SDS011;5801;50.804;12.638;2023-08-12T09:10:21;2.20;;;1.88;;
11488;SDS011;5801;50.804;12.638;2023-08-12T09:12:48;2.40;;;1.73;;
11488;SDS011;5801;50.804;12.638;2023-08-12T09:15:17;2.03;;;1.83;;
11488;SDS011;5801;50.804;12.638;2023-08-12T09:17:44;2.00;;;1.80;;
11488;SDS011;5801;50.804;12.638;2023-08-12T09:20:10;2.22;;;1.70;;
11488;SDS011;5801;50.804;12.638;2023-08-12T09:22:41;4.28;;;1.80;;
11488;SDS011;5801;50.804;12.638;2023-08-12T09:25:08;5.00;;;1.98;;
11488;SDS011;5801;50.804;12.638;2023-08-12T09:27:35;5.18;;;1.90;;
11488;SDS011;5801;50.804;12.638;2023-08-12T09:30:04;3.60;;;1.90;;
11488;SDS011;5801;50.804;12.638;2023-08-12T09:32:31;1.88;;;1.73;;
11488;SDS011;5801;50.804;12.638;2023-08-12T09:34:59;2.05;;;1.85;;
11488;SDS011;5801;50.804;12.638;2023-08-12T09:37:28;6.10;;;1.77;;
11488;SDS011;5801;50.804;12.638;2023-08-12T09:39:54;1.65;;;1.55;;
11488;SDS011;5801;50.804;12.638;2023-08-12T09:42:22;2.50;;;1.90;;
11488;SDS011;5801;50.804;12.638;2023-08-12T09:44:49;2.15;;;1.95;;
11488;SDS011;5801;50.804;12.638;2023-08-12T09:47:14;3.28;;;1.60;;
11488;SDS011;5801;50.804;12.638;2023-08-12T09:49:40;2.30;;;2.05;;
11488;SDS011;5801;50.804;12.638;2023-08-12T09:52:07;5.15;;;1.60;;
11488;SDS011;5801;50.804;12.638;2023-08-12T09:54:34;2.25;;;1.80;;
11488;SDS011;5801;50.804;12.638;2023-08-12T09:57:00;2.15;;;1.90;;
11488;SDS011;5801;50.804;12.638;2023-08-12T09:59:29;2.28;;;1.92;;
11488;SDS011;5801;50.804;12.638;2023-08-12T10:01:57;1.75;;;1.55;;
11488;SDS011;5801;50.804;12.638;2023-08-12T10:04:25;1.48;;;1.38;;
11488;SDS011;5801;50.804;12.638;2023-08-12T10:06:54;3.95;;;1.90;;
11488;SDS011;5801;50.804;12.638;2023-08-12T10:09:20;2.83;;;1.65;;
11488;SDS011;5801;50.804;12.638;2023-08-12T10:11:46;2.42;;;1.65;;
11488;SDS011;5801;50.804;12.638;2023-08-12T10:14:12;1.95;;;1.55;;
11488;SDS011;5801;50.804;12.638;2023-08-12T10:16:39;2.00;;;1.80;;
11488;SDS011;5801;50.804;12.638;2023-08-12T10:19:11;1.40;;;1.30;;
11488;SDS011;5801;50.804;12.638;2023-08-12T10:21:37;2.38;;;1.45;;
11488;SDS011;5801;50.804;12.638;2023-08-12T10:24:03;3.95;;;1.40;;
11488;SDS011;5801;50.804;12.638;2023-08-12T10:26:32;1.67;;;1.45;;
11488;SDS011;5801;50.804;12.638;2023-08-12T10:28:59;1.20;;;1.10;;
11488;SDS011;5801;50.804;12.638;2023-08-12T10:31:26;1.40;;;1.30;;
11488;SDS011;5801;50.804;12.638;2023-08-12T10:33:53;1.52;;;1.42;;
11488;SDS011;5801;50.804;12.638;2023-08-12T10:36:21;1.00;;;1.00;;
11488;SDS011;5801;50.804;12.638;2023-08-12T10:38:48;1.45;;;1.30;;
11488;SDS011;5801;50.804;12.638;2023-08-12T10:41:20;7.47;;;1.25;;
11488;SDS011;5801;50.804;12.638;2023-08-12T10:43:53;2.75;;;1.20;;
11488;SDS011;5801;50.804;12.638;2023-08-12T10:46:35;2.08;;;1.17;;
11488;SDS011;5801;50.804;12.638;2023-08-12T10:49:03;1.50;;;1.40;;
11488;SDS011;5801;50.804;12.638;2023-08-12T10:51:38;1.42;;;1.17;;
11488;SDS011;5801;50.804;12.638;2023-08-12T11:02:28;3.60;;;1.02;;
11488;SDS011;5801;50.804;12.638;2023-08-12T11:05:08;1.10;;;1.10;;
11488;SDS011;5801;50.804;12.638;2023-08-12T11:10:23;1.23;;;1.10;;
11488;SDS011;5801;50.804;12.638;2023-08-12T11:15:17;1.00;;;1.00;;
11488;SDS011;5801;50.804;12.638;2023-08-12T11:17:46;1.40;;;1.30;;
11488;SDS011;5801;50.804;12.638;2023-08-12T11:20:13;1.13;;;1.02;;
11488;SDS011;5801;50.804;12.638;2023-08-12T11:22:40;3.10;;;1.25;;
11488;SDS011;5801;50.804;12.638;2023-08-12T11:25:08;1.65;;;1.30;;
11488;SDS011;5801;50.804;12.638;2023-08-12T11:27:43;1.10;;;1.00;;
11488;SDS011;5801;50.804;12.638;2023-08-12T11:30:16;1.83;;;1.40;;
11488;SDS011;5801;50.804;12.638;2023-08-12T11:32:44;1.10;;;1.02;;
11488;SDS011;5801;50.804;12.638;2023-08-12T11:35:14;1.02;;;1.00;;
11488;SDS011;5801;50.804;12.638;2023-08-12T11:37:42;1.00;;;1.00;;
11488;SDS011;5801;50.804;12.638;2023-08-12T11:40:11;1.73;;;1.30;;
11488;SDS011;5801;50.804;12.638;2023-08-12T11:42:40;1.35;;;0.95;;
11488;SDS011;5801;50.804;12.638;2023-08-12T11:45:12;1.30;;;1.20;;
11488;SDS011;5801;50.804;12.638;2023-08-12T11:47:41;2.40;;;1.30;;
11488;SDS011;5801;50.804;12.638;2023-08-12T11:50:08;2.90;;;1.23;;
11488;SDS011;5801;50.804;12.638;2023-08-12T11:52:36;1.50;;;1.40;;
11488;SDS011;5801;50.804;12.638;2023-08-12T11:55:03;1.35;;;1.20;;
11488;SDS011;5801;50.804;12.638;2023-08-12T11:57:32;1.30;;;1.20;;
11488;SDS011;5801;50.804;12.638;2023-08-12T12:00:05;1.50;;;1.40;;
11488;SDS011;5801;50.804;12.638;2023-08-12T12:02:38;1.48;;;1.38;;
11488;SDS011;5801;50.804;12.638;2023-08-12T12:05:28;1.50;;;1.40;;
11488;SDS011;5801;50.804;12.638;2023-08-12T12:07:55;1.50;;;1.40;;
11488;SDS011;5801;50.804;12.638;2023-08-12T12:10:25;2.20;;;1.30;;
11488;SDS011;5801;50.804;12.638;2023-08-12T12:12:54;2.47;;;1.30;;
11488;SDS011;5801;50.804;12.638;2023-08-12T12:15:20;1.98;;;1.20;;
11488;SDS011;5801;50.804;12.638;2023-08-12T12:17:47;2.60;;;1.40;;
11488;SDS011;5801;50.804;12.638;2023-08-12T12:20:14;1.88;;;1.30;;
11488;SDS011;5801;50.804;12.638;2023-08-12T12:22:41;1.65;;;1.42;;
11488;SDS011;5801;50.804;12.638;2023-08-12T12:25:11;1.60;;;1.50;;
11488;SDS011;5801;50.804;12.638;2023-08-12T12:27:38;1.30;;;1.20;;
11488;SDS011;5801;50.804;12.638;2023-08-12T12:30:08;1.58;;;1.48;;
11488;SDS011;5801;50.804;12.638;2023-08-12T12:32:35;3.33;;;1.35;;
11488;SDS011;5801;50.804;12.638;2023-08-12T12:35:02;1.50;;;1.38;;
11488;SDS011;5801;50.804;12.638;2023-08-12T12:37:29;1.75;;;1.30;;
11488;SDS011;5801;50.804;12.638;2023-08-12T12:39:55;4.43;;;1.50;;
11488;SDS011;5801;50.804;12.638;2023-08-12T12:42:21;2.13;;;1.38;;
11488;SDS011;5801;50.804;12.638;2023-08-12T12:44:47;1.83;;;1.73;;
11488;SDS011;5801;50.804;12.638;2023-08-12T12:47:14;1.25;;;1.17;;
11488;SDS011;5801;50.804;12.638;2023-08-12T12:49:40;5.60;;;1.77;;
11488;SDS011;5801;50.804;12.638;2023-08-12T12:52:09;1.65;;;1.50;;
11488;SDS011;5801;50.804;12.638;2023-08-12T12:54:34;1.80;;;1.42;;
11488;SDS011;5801;50.804;12.638;2023-08-12T12:57:00;1.70;;;1.60;;
11488;SDS011;5801;50.804;12.638;2023-08-12T12:59:28;1.52;;;1.42;;
11488;SDS011;5801;50.804;12.638;2023-08-12T13:01:55;1.80;;;1.70;;
11488;SDS011;5801;50.804;12.638;2023-08-12T13:04:21;5.10;;;1.60;;
11488;SDS011;5801;50.804;12.638;2023-08-12T13:06:47;3.13;;;1.60;;
11488;SDS011;5801;50.804;12.638;2023-08-12T13:09:13;3.05;;;1.63;;
11488;SDS011;5801;50.804;12.638;2023-08-12T13:11:39;1.80;;;1.70;;
11488;SDS011;5801;50.804;12.638;2023-08-12T13:14:05;1.85;;;1.70;;
11488;SDS011;5801;50.804;12.638;2023-08-12T13:16:31;1.60;;;1.45;;
11488;SDS011;5801;50.804;12.638;2023-08-12T13:18:57;1.95;;;1.60;;
11488;SDS011;5801;50.804;12.638;2023-08-12T13:21:24;2.10;;;1.75;;
11488;SDS011;5801;50.804;12.638;2023-08-12T13:23:51;1.52;;;1.42;;
11488;SDS011;5801;50.804;12.638;2023-08-12T13:26:17;2.22;;;1.63;;
11488;SDS011;5801;50.804;12.638;2023-08-12T13:28:44;3.42;;;1.90;;
11488;SDS011;5801;50.804;12.638;2023-08-12T13:31:11;1.90;;;1.73;;
11488;SDS011;5801;50.804;12.638;2023-08-12T13:33:36;1.73;;;1.63;;
11488;SDS011;5801;50.804;12.638;2023-08-12T13:36:02;2.15;;;1.95;;
11488;SDS011;5801;50.804;12.638;2023-08-12T13:38:29;1.85;;;1.65;;
11488;SDS011;5801;50.804;12.638;2023-08-12T13:40:54;2.08;;;1.30;;
11488;SDS011;5801;50.804;12.638;2023-08-12T13:43:20;4.03;;;1.70;;
11488;SDS011;5801;50.804;12.638;2023-08-12T13:45:47;3.85;;;1.50;;
11488;SDS011;5801;50.804;12.638;2023-08-12T13:48:13;1.58;;;1.48;;
11488;SDS011;5801;50.804;12.638;2023-08-12T13:50:39;2.80;;;1.58;;
11488;SDS011;5801;50.804;12.638;2023-08-12T13:53:05;5.20;;;1.48;;
11488;SDS011;5801;50.804;12.638;2023-08-12T13:55:31;3.92;;;1.63;;
11488;SDS011;5801;50.804;12.638;2023-08-12T13:57:57;1.60;;;1.50;;
11488;SDS011;5801;50.804;12.638;2023-08-12T14:00:24;2.25;;;1.90;;
11488;SDS011;5801;50.804;12.638;2023-08-12T14:02:50;1.60;;;1.50;;
11488;SDS011;5801;50.804;12.638;2023-08-12T14:05:16;5.75;;;2.00;;
11488;SDS011;5801;50.804;12.638;2023-08-12T14:07:42;1.98;;;1.70;;
11488;SDS011;5801;50.804;12.638;2023-08-12T14:10:08;6.65;;;1.70;;
11488;SDS011;5801;50.804;12.638;2023-08-12T14:12:34;8.13;;;1.90;;
11488;SDS011;5801;50.804;12.638;2023-08-12T14:15:00;2.13;;;1.90;;
11488;SDS011;5801;50.804;12.638;2023-08-12T14:17:27;2.22;;;1.42;;
11488;SDS011;5801;50.804;12.638;2023-08-12T14:19:53;2.58;;;1.77;;
11488;SDS011;5801;50.804;12.638;2023-08-12T14:22:19;1.75;;;1.63;;
11488;SDS011;5801;50.804;12.638;2023-08-12T14:24:45;2.25;;;1.73;;
11488;SDS011;5801;50.804;12.638;2023-08-12T14:27:13;2.65;;;1.90;;
11488;SDS011;5801;50.804;12.638;2023-08-12T14:29:43;3.85;;;1.80;;
11488;SDS011;5801;50.804;12.638;2023-08-12T14:32:09;2.45;;;2.00;;
11488;SDS011;5801;50.804;12.638;2023-08-12T14:34:35;1.83;;;1.73;;
11488;SDS011;5801;50.804;12.638;2023-08-12T14:37:02;1.95;;;1.80;;
11488;SDS011;5801;50.804;12.638;2023-08-12T14:39:28;2.10;;;1.90;;
11488;SDS011;5801;50.804;12.638;2023-08-12T14:41:54;4.72;;;2.00;;
11488;SDS011;5801;50.804;12.638;2023-08-12T14:44:20;3.88;;;1.88;;
11488;SDS011;5801;50.804;12.638;2023-08-12T14:46:46;2.05;;;1.85;;
11488;SDS011;5801;50.804;12.638;2023-08-12T14:49:12;2.28;;;2.08;;
11488;SDS011;5801;50.804;12.638;2023-08-12T14:51:38;2.38;;;1.88;;
11488;SDS011;5801;50.804;12.638;2023-08-12T14:54:04;1.73;;;1.63;;
11488;SDS011;5801;50.804;12.638;2023-08-12T14:56:30;2.67;;;2.05;;
11488;SDS011;5801;50.804;12.638;2023-08-12T14:58:56;2.80;;;1.80;;
11488;SDS011;5801;50.804;12.638;2023-08-12T15:01:23;1.60;;;1.50;;
11488;SDS011;5801;50.804;12.638;2023-08-12T15:03:52;2.60;;;2.20;;